createdAt,value
2018-06-06T00:01:40.391Z,18.60
2018-06-06T00:04:09.470Z,18.53
2018-06-06T00:06:38.575Z,18.54
2018-06-06T00:09:08.483Z,18.67
2018-06-06T00:11:37.567Z,18.54
2018-06-06T00:14:07.295Z,18.50
2018-06-06T00:16:36.369Z,18.35
2018-06-06T00:19:05.635Z,18.31
2018-06-06T00:21:34.735Z,18.67
2018-06-06T00:24:03.870Z,18.68
2018-06-06T00:26:32.961Z,18.68
2018-06-06T00:29:02.105Z,18.75
2018-06-06T00:31:31.169Z,18.59
2018-06-06T00:34:00.314Z,18.45
2018-06-06T00:36:29.410Z,18.36
2018-06-06T00:38:58.552Z,18.32
2018-06-06T00:41:27.643Z,18.33
2018-06-06T00:43:56.815Z,18.20
2018-06-06T00:46:25.918Z,18.22
2018-06-06T00:48:55.535Z,18.21
2018-06-06T00:51:24.622Z,18.17
2018-06-06T00:53:53.689Z,18.06
2018-06-06T00:56:22.778Z,17.93
2018-06-06T00:58:51.902Z,18.02
2018-06-06T01:01:21.178Z,17.85
2018-06-06T01:03:50.242Z,17.79
2018-06-06T01:06:19.334Z,17.77
2018-06-06T01:08:48.424Z,17.69
2018-06-06T01:11:17.498Z,17.61
2018-06-06T01:13:46.619Z,17.72
2018-06-06T01:16:15.760Z,17.63
2018-06-06T01:18:45.868Z,17.46
2018-06-06T01:21:14.978Z,17.46
2018-06-06T01:23:44.687Z,17.39
2018-06-06T01:26:13.799Z,17.32
2018-06-06T01:28:42.865Z,17.28
2018-06-06T01:31:11.994Z,17.16
2018-06-06T01:33:41.152Z,17.18
2018-06-06T01:36:10.234Z,17.33
2018-06-06T01:38:39.302Z,17.18
2018-06-06T01:41:08.938Z,17.13
2018-06-06T01:43:38.579Z,17.09
2018-06-06T01:46:07.660Z,17.07
2018-06-06T01:48:37.037Z,17.06
2018-06-06T01:51:06.209Z,16.94
2018-06-06T01:53:35.258Z,16.83
2018-06-06T01:56:04.355Z,16.78
2018-06-06T01:58:33.455Z,16.78
2018-06-06T02:01:02.740Z,16.77
2018-06-06T02:03:31.848Z,16.63
2018-06-06T02:06:00.938Z,16.53
2018-06-06T02:08:30.036Z,16.58
2018-06-06T02:10:59.129Z,16.65
2018-06-06T02:13:28.285Z,16.62
2018-06-06T02:15:57.358Z,16.74
2018-06-06T02:18:27.655Z,16.73
2018-06-06T02:20:57.919Z,16.70
2018-06-06T02:23:27.020Z,16.65
2018-06-06T02:25:56.155Z,16.57
2018-06-06T02:28:25.264Z,16.47
2018-06-06T02:30:54.403Z,16.50
2018-06-06T02:33:23.558Z,16.47
2018-06-06T02:35:52.667Z,16.41
2018-06-06T02:38:21.767Z,16.36
2018-06-06T02:40:51.682Z,16.39
2018-06-06T02:43:20.847Z,16.43
2018-06-06T02:45:50.115Z,16.46
2018-06-06T02:48:19.235Z,16.43
2018-06-06T02:50:48.303Z,16.38
2018-06-06T02:53:17.363Z,16.39
2018-06-06T02:55:46.988Z,16.44
2018-06-06T02:58:16.054Z,16.31
2018-06-06T03:00:45.139Z,16.34
2018-06-06T03:03:14.244Z,16.38
2018-06-06T03:05:43.331Z,16.30
2018-06-06T03:08:12.407Z,16.31
2018-06-06T03:10:41.515Z,16.24
2018-06-06T03:13:10.588Z,16.22
2018-06-06T03:15:39.674Z,16.16
2018-06-06T03:18:08.866Z,16.34
2018-06-06T03:20:37.947Z,16.59
2018-06-06T03:23:07.039Z,16.60
2018-06-06T03:25:36.142Z,16.56
2018-06-06T03:28:06.026Z,16.50
2018-06-06T03:30:35.103Z,16.57
2018-06-06T03:33:04.236Z,16.56
2018-06-06T03:35:33.360Z,16.55
2018-06-06T03:38:02.483Z,16.60
2018-06-06T03:40:31.564Z,16.61
2018-06-06T03:43:00.639Z,16.56
2018-06-06T03:45:29.738Z,16.60
2018-06-06T03:47:58.808Z,16.59
2018-06-06T03:50:27.974Z,16.56
2018-06-06T03:52:57.826Z,16.59
2018-06-06T03:55:26.915Z,16.63
2018-06-06T03:57:56.083Z,16.68
2018-06-06T04:00:25.176Z,16.70
2018-06-06T04:02:54.242Z,16.71
2018-06-06T04:05:23.362Z,16.85
2018-06-06T04:07:52.456Z,17.45
2018-06-06T04:10:21.523Z,18.17
2018-06-06T04:12:51.138Z,18.69
2018-06-06T04:15:20.227Z,19.39
2018-06-06T04:17:49.307Z,20.12
2018-06-06T04:20:18.422Z,20.58
2018-06-06T04:22:47.520Z,21.39
2018-06-06T04:25:16.565Z,21.98
2018-06-06T04:27:45.712Z,22.31
2018-06-06T04:30:14.806Z,22.64
2018-06-06T04:32:43.934Z,22.48
2018-06-06T04:35:13.377Z,22.78
2018-06-06T04:37:42.442Z,22.86
2018-06-06T04:40:11.523Z,23.07
2018-06-06T04:42:40.613Z,23.35
2018-06-06T04:45:09.698Z,23.33
2018-06-06T04:47:38.777Z,23.84
2018-06-06T04:50:08.690Z,24.20
2018-06-06T04:52:38.122Z,24.92
2018-06-06T04:55:07.719Z,25.25
2018-06-06T04:57:37.719Z,25.77
2018-06-06T05:00:07.596Z,25.89
2018-06-06T05:02:36.752Z,26.20
2018-06-06T05:05:05.729Z,26.42
2018-06-06T05:07:34.832Z,26.81
2018-06-06T05:10:03.950Z,26.59
2018-06-06T05:12:33.889Z,26.46
2018-06-06T05:15:02.943Z,26.64
2018-06-06T05:17:32.008Z,26.91
2018-06-06T05:20:01.926Z,26.93
2018-06-06T05:22:31.906Z,27.36
2018-06-06T05:25:01.831Z,26.91
2018-06-06T05:27:31.811Z,27.48
2018-06-06T05:30:01.559Z,27.49
2018-06-06T05:32:36.194Z,28.18
2018-06-06T05:35:05.531Z,28.77
2018-06-06T05:37:35.483Z,29.55
2018-06-06T05:40:04.778Z,29.03
2018-06-06T05:42:33.995Z,29.45
2018-06-06T05:45:03.067Z,29.41
2018-06-06T05:47:32.764Z,29.62
2018-06-06T05:50:02.058Z,29.34
2018-06-06T05:52:31.134Z,29.49
2018-06-06T05:55:00.595Z,29.67
2018-06-06T05:57:29.802Z,28.38
2018-06-06T05:59:58.883Z,28.62
2018-06-06T06:02:27.958Z,28.84
2018-06-06T06:04:57.059Z,29.22
2018-06-06T06:07:26.124Z,29.75
2018-06-06T06:09:55.190Z,30.29
2018-06-06T06:12:24.305Z,30.34
2018-06-06T06:14:53.383Z,30.42
2018-06-06T06:17:22.478Z,30.68
2018-06-06T06:19:51.599Z,29.68
2018-06-06T06:22:20.355Z,29.96
2018-06-06T06:24:49.135Z,30.14
2018-06-06T06:27:18.218Z,29.92
2018-06-06T06:29:47.328Z,30.40
2018-06-06T06:32:16.468Z,31.82
2018-06-06T06:34:45.554Z,31.47
2018-06-06T06:37:14.649Z,31.43
2018-06-06T06:39:44.491Z,30.72
2018-06-06T06:42:13.663Z,30.81
2018-06-06T06:44:42.746Z,31.87
2018-06-06T06:47:11.921Z,32.66
2018-06-06T06:49:41.090Z,34.02
2018-06-06T06:52:10.293Z,32.97
2018-06-06T06:54:40.410Z,32.14
2018-06-06T06:57:09.578Z,33.61
2018-06-06T06:59:38.949Z,32.30
2018-06-06T07:02:08.107Z,33.82
2018-06-06T07:04:36.971Z,31.57
2018-06-06T07:07:06.239Z,32.83
2018-06-06T07:09:36.067Z,32.91
2018-06-06T07:12:06.054Z,31.76
2018-06-06T07:14:35.222Z,31.69
2018-06-06T07:17:04.615Z,33.80
2018-06-06T07:19:33.775Z,33.96
2018-06-06T07:22:02.503Z,34.66
2018-06-06T07:24:32.362Z,35.43
2018-06-06T07:27:01.563Z,34.90
2018-06-06T07:29:31.992Z,33.22
2018-06-06T07:32:01.099Z,33.97
2018-06-06T07:34:30.166Z,34.39
2018-06-06T07:36:59.246Z,34.07
2018-06-06T07:39:28.368Z,33.93
2018-06-06T07:41:57.586Z,32.63
2018-06-06T07:44:26.319Z,33.17
2018-06-06T07:46:55.448Z,34.72
2018-06-06T07:49:24.540Z,35.09
2018-06-06T07:51:54.018Z,34.31
2018-06-06T07:54:23.959Z,35.82
2018-06-06T07:56:53.143Z,36.99
2018-06-06T07:59:22.664Z,34.54
2018-06-06T08:01:51.530Z,35.00
2018-06-06T08:04:20.619Z,36.63
2018-06-06T08:06:50.301Z,35.32
2018-06-06T08:09:19.487Z,34.38
2018-06-06T08:11:49.019Z,35.34
2018-06-06T08:14:18.173Z,35.33
2018-06-06T08:16:48.327Z,36.13
2018-06-06T08:19:17.411Z,37.46
2018-06-06T08:21:46.496Z,38.17
2018-06-06T08:24:15.600Z,37.88
2018-06-06T08:26:44.668Z,38.13
2018-06-06T08:29:14.259Z,38.56
2018-06-06T08:31:43.622Z,38.10
2018-06-06T08:34:12.687Z,39.45
2018-06-06T08:36:41.811Z,38.61
2018-06-06T08:39:11.011Z,39.37
2018-06-06T08:41:40.083Z,39.33
2018-06-06T08:44:09.172Z,39.59
2018-06-06T08:46:38.283Z,39.22
2018-06-06T08:49:08.124Z,40.27
2018-06-06T08:51:37.218Z,41.08
2018-06-06T08:54:06.347Z,39.75
2018-06-06T08:56:36.233Z,39.64
2018-06-06T08:59:05.291Z,40.66
2018-06-06T09:01:34.403Z,41.53
2018-06-06T09:04:03.048Z,40.18
2018-06-06T09:06:32.120Z,39.06
2018-06-06T09:09:01.329Z,38.32
2018-06-06T09:11:30.830Z,38.27
2018-06-06T09:14:00.591Z,39.09
2018-06-06T09:16:29.732Z,38.96
2018-06-06T09:18:58.839Z,40.63
2018-06-06T09:21:27.927Z,38.85
2018-06-06T09:23:57.583Z,37.10
2018-06-06T09:26:27.031Z,35.30
2018-06-06T09:28:56.100Z,34.27
2018-06-06T09:31:25.890Z,34.78
2018-06-06T09:33:55.806Z,35.01
2018-06-06T09:36:25.627Z,34.20
2018-06-06T09:38:54.827Z,35.43
2018-06-06T09:41:23.962Z,37.80
2018-06-06T09:43:53.083Z,39.84
2018-06-06T09:46:22.684Z,41.65
2018-06-06T09:48:51.827Z,41.69
2018-06-06T09:51:21.565Z,39.71
2018-06-06T09:53:51.550Z,39.29
2018-06-06T09:56:21.088Z,42.45
2018-06-06T09:58:50.243Z,39.88
2018-06-06T10:01:19.338Z,38.94
2018-06-06T10:03:48.439Z,36.86
2018-06-06T10:06:17.739Z,37.50
2018-06-06T10:08:47.286Z,38.74
2018-06-06T10:11:16.427Z,37.99
2018-06-06T10:13:45.619Z,38.07
2018-06-06T10:16:14.686Z,39.39
2018-06-06T10:18:43.802Z,37.78
2018-06-06T10:21:13.926Z,37.35
2018-06-06T10:23:43.245Z,35.50
2018-06-06T10:26:12.790Z,35.64
2018-06-06T10:28:42.515Z,35.61
2018-06-06T10:31:12.474Z,34.72
2018-06-06T10:33:42.376Z,34.83
2018-06-06T10:36:13.411Z,35.92
2018-06-06T10:38:43.159Z,35.89
2018-06-06T10:41:12.086Z,36.38
2018-06-06T10:43:41.430Z,36.66
2018-06-06T10:46:10.780Z,39.84
2018-06-06T10:48:40.254Z,39.88
2018-06-06T10:51:09.367Z,42.62
2018-06-06T10:53:38.462Z,42.45
2018-06-06T10:56:07.718Z,41.59
2018-06-06T10:58:37.514Z,42.36
2018-06-06T11:01:07.148Z,42.67
2018-06-06T11:03:36.366Z,40.41
2018-06-06T11:06:06.009Z,42.58
2018-06-06T11:08:36.064Z,39.99
2018-06-06T11:11:06.199Z,38.33
2018-06-06T11:13:36.220Z,39.69
2018-06-06T11:16:07.088Z,39.91
2018-06-06T11:18:36.934Z,41.05
2018-06-06T11:21:06.171Z,40.75
2018-06-06T11:23:35.550Z,39.67
2018-06-06T11:26:05.104Z,38.00
2018-06-06T11:28:34.698Z,37.06
2018-06-06T11:31:03.784Z,39.15
2018-06-06T11:33:33.019Z,37.29
2018-06-06T11:36:02.979Z,39.48
2018-06-06T11:38:32.055Z,37.26
2018-06-06T11:41:01.154Z,35.04
2018-06-06T11:43:30.214Z,37.37
2018-06-06T11:45:59.303Z,36.82
2018-06-06T11:48:28.411Z,35.45
2018-06-06T11:50:57.466Z,36.27
2018-06-06T11:53:26.558Z,40.22
2018-06-06T11:55:55.644Z,39.34
2018-06-06T11:58:24.675Z,37.90
2018-06-06T12:00:53.810Z,38.92
2018-06-06T12:03:22.992Z,37.88
2018-06-06T12:05:52.113Z,37.04
2018-06-06T12:08:21.162Z,34.79
2018-06-06T12:10:50.823Z,33.94
2018-06-06T12:13:19.907Z,33.68
2018-06-06T12:15:48.886Z,33.18
2018-06-06T12:18:18.004Z,32.92
2018-06-06T12:20:47.407Z,32.69
2018-06-06T12:23:16.512Z,32.75
2018-06-06T12:25:45.583Z,32.50
2018-06-06T12:28:14.868Z,32.46
2018-06-06T12:30:44.626Z,32.47
2018-06-06T12:33:13.780Z,32.21
2018-06-06T12:35:43.963Z,31.94
2018-06-06T12:38:13.131Z,31.42
2018-06-06T12:40:42.808Z,31.20
2018-06-06T12:43:12.722Z,30.75
2018-06-06T12:45:42.734Z,30.87
2018-06-06T12:48:11.203Z,30.50
2018-06-06T12:50:40.395Z,30.68
2018-06-06T12:53:09.500Z,30.76
2018-06-06T12:55:38.930Z,30.58
2018-06-06T12:58:08.890Z,29.82
2018-06-06T13:00:38.111Z,28.99
2018-06-06T13:03:07.212Z,28.44
2018-06-06T13:05:36.732Z,27.53
2018-06-06T13:08:05.991Z,27.48
2018-06-06T13:10:35.218Z,27.30
2018-06-06T13:13:04.154Z,27.08
2018-06-06T13:15:32.878Z,26.90
2018-06-06T13:18:01.612Z,26.59
2018-06-06T13:20:31.247Z,26.32
2018-06-06T13:23:00.549Z,25.70
2018-06-06T13:25:29.636Z,25.55
2018-06-06T13:28:00.005Z,25.50
2018-06-06T13:30:28.907Z,25.68
2018-06-06T13:32:57.982Z,25.93
2018-06-06T13:35:27.258Z,26.30
2018-06-06T13:37:57.550Z,26.36
2018-06-06T13:40:26.790Z,26.37
2018-06-06T13:42:55.941Z,25.99
2018-06-06T13:45:25.771Z,25.91
2018-06-06T13:47:54.926Z,26.00
2018-06-06T13:50:24.136Z,26.42
2018-06-06T13:52:53.239Z,27.20
2018-06-06T13:55:22.439Z,28.04
2018-06-06T13:57:51.944Z,27.96
2018-06-06T14:00:21.058Z,27.91
2018-06-06T14:02:50.206Z,28.21
2018-06-06T14:05:19.354Z,28.37
2018-06-06T14:07:48.490Z,28.89
2018-06-06T14:10:18.009Z,29.80
2018-06-06T14:12:47.667Z,30.43
2018-06-06T14:15:16.764Z,30.92
2018-06-06T14:17:45.851Z,31.22
2018-06-06T14:20:14.980Z,32.27
2018-06-06T14:22:44.067Z,34.08
2018-06-06T14:25:13.142Z,35.66
2018-06-06T14:27:42.267Z,36.41
2018-06-06T14:30:11.396Z,37.49
2018-06-06T14:32:40.462Z,38.60
2018-06-06T14:35:09.574Z,36.89
2018-06-06T14:37:38.655Z,35.94
2018-06-06T14:40:07.757Z,37.18
2018-06-06T14:42:36.931Z,35.33
2018-06-06T14:45:05.999Z,35.79
2018-06-06T14:47:35.062Z,35.31
2018-06-06T14:50:04.180Z,36.77
2018-06-06T14:52:33.935Z,38.36
2018-06-06T14:55:03.115Z,39.07
2018-06-06T14:57:32.216Z,38.90
2018-06-06T15:00:01.306Z,37.35
2018-06-06T15:02:30.398Z,37.15
2018-06-06T15:04:59.492Z,37.45
2018-06-06T15:07:28.585Z,37.88
2018-06-06T15:09:57.658Z,36.39
2018-06-06T15:12:26.755Z,36.84
2018-06-06T15:14:55.823Z,37.38
2018-06-06T15:17:25.051Z,37.76
2018-06-06T15:19:53.822Z,38.06
2018-06-06T15:22:23.105Z,37.71
2018-06-06T15:24:52.212Z,38.93
2018-06-06T15:27:21.847Z,38.68
2018-06-06T15:29:51.203Z,38.48
2018-06-06T15:32:20.314Z,38.37
2018-06-06T15:34:49.391Z,37.84
2018-06-06T15:37:18.476Z,36.76
2018-06-06T15:39:48.194Z,36.44
2018-06-06T15:42:17.354Z,36.52
2018-06-06T15:44:46.415Z,36.17
2018-06-06T15:47:15.704Z,36.71
2018-06-06T15:49:44.834Z,36.82
2018-06-06T15:52:13.942Z,37.30
2018-06-06T15:54:43.061Z,38.42
2018-06-06T15:57:12.943Z,37.86
2018-06-06T15:59:42.047Z,36.15
2018-06-06T16:02:11.150Z,35.80
2018-06-06T16:04:41.174Z,34.51
2018-06-06T16:07:11.079Z,33.20
2018-06-06T16:09:40.891Z,32.26
2018-06-06T16:12:09.984Z,32.77
2018-06-06T16:14:39.594Z,33.19
2018-06-06T16:17:09.026Z,34.20
2018-06-06T16:19:38.107Z,34.42
2018-06-06T16:22:08.072Z,33.91
2018-06-06T16:24:38.685Z,33.59
2018-06-06T16:27:08.006Z,32.89
2018-06-06T16:29:39.633Z,33.03
2018-06-06T16:32:08.742Z,32.67
2018-06-06T16:34:37.873Z,32.22
2018-06-06T16:37:07.035Z,32.50
2018-06-06T16:39:35.722Z,32.03
2018-06-06T16:42:04.790Z,32.57
2018-06-06T16:44:33.962Z,32.73
2018-06-06T16:47:03.026Z,31.66
2018-06-06T16:49:32.158Z,32.07
2018-06-06T16:52:01.266Z,32.37
2018-06-06T16:54:30.331Z,32.30
2018-06-06T16:56:59.458Z,32.10
2018-06-06T16:59:28.563Z,31.95
2018-06-06T17:01:57.724Z,31.81
2018-06-06T17:04:26.946Z,31.71
2018-06-06T17:06:56.114Z,30.88
2018-06-06T17:09:25.198Z,30.43
2018-06-06T17:11:54.308Z,30.84
2018-06-06T17:14:23.416Z,30.59
2018-06-06T17:16:52.561Z,30.41
2018-06-06T17:19:21.643Z,30.31
2018-06-06T17:21:51.286Z,30.04
2018-06-06T17:24:20.422Z,29.71
2018-06-06T17:26:49.509Z,29.48
2018-06-06T17:29:18.591Z,29.28
2018-06-06T17:31:47.690Z,29.22
2018-06-06T17:34:16.830Z,29.34
2018-06-06T17:36:46.016Z,29.20
2018-06-06T17:39:15.138Z,29.11
2018-06-06T17:41:44.303Z,29.31
2018-06-06T17:44:13.482Z,29.09
2018-06-06T17:46:43.759Z,28.97
2018-06-06T17:49:12.878Z,28.57
2018-06-06T17:51:41.943Z,28.60
2018-06-06T17:54:11.109Z,28.53
2018-06-06T17:56:41.122Z,28.32
2018-06-06T17:59:10.996Z,28.05
2018-06-06T18:01:43.234Z,27.76
2018-06-06T18:04:14.340Z,27.74
2018-06-06T18:06:43.595Z,27.52
2018-06-06T18:09:12.979Z,27.47
2018-06-06T18:11:42.159Z,27.28
2018-06-06T18:14:11.687Z,27.01
2018-06-06T18:16:40.812Z,26.93
2018-06-06T18:19:09.926Z,26.74
2018-06-06T18:21:39.135Z,26.64
2018-06-06T18:24:08.474Z,26.58
2018-06-06T18:26:38.743Z,26.58
2018-06-06T18:29:07.972Z,26.42
2018-06-06T18:31:38.138Z,26.35
2018-06-06T18:34:08.214Z,26.26
2018-06-06T18:36:38.314Z,26.13
2018-06-06T18:39:08.863Z,26.10
2018-06-06T18:41:37.962Z,26.03
2018-06-06T18:44:07.039Z,25.95
2018-06-06T18:46:36.818Z,25.81
2018-06-06T18:49:06.034Z,25.78
2018-06-06T18:51:35.100Z,25.70
2018-06-06T18:54:04.184Z,25.69
2018-06-06T18:56:33.303Z,25.77
2018-06-06T18:59:02.391Z,25.66
2018-06-06T19:01:31.636Z,25.61
2018-06-06T19:04:01.310Z,25.50
2018-06-06T19:06:30.715Z,25.44
2018-06-06T19:08:59.975Z,25.52
2018-06-06T19:11:29.535Z,25.46
2018-06-06T19:13:58.606Z,25.55
2018-06-06T19:16:28.503Z,25.54
2018-06-06T19:18:57.592Z,25.39
2018-06-06T19:21:26.897Z,25.41
2018-06-06T19:23:56.891Z,25.24
2018-06-06T19:26:26.005Z,25.10
2018-06-06T19:28:55.095Z,24.96
2018-06-06T19:31:24.261Z,24.81
2018-06-06T19:33:53.342Z,24.63
2018-06-06T19:36:22.414Z,24.47
2018-06-06T19:38:51.947Z,24.45
2018-06-06T19:41:21.054Z,24.35
2018-06-06T19:43:50.638Z,24.22
2018-06-06T19:46:20.091Z,24.01
2018-06-06T19:48:49.308Z,23.94
2018-06-06T19:51:19.722Z,23.70
2018-06-06T19:53:48.790Z,23.63
2018-06-06T19:56:17.869Z,23.49
2018-06-06T19:58:46.983Z,22.66
2018-06-06T20:01:16.043Z,21.47
2018-06-06T20:03:45.566Z,20.88
2018-06-06T20:06:16.486Z,20.47
2018-06-06T20:08:46.371Z,20.17
2018-06-06T20:11:16.287Z,19.92
2018-06-06T20:13:46.232Z,19.72
2018-06-06T20:16:15.394Z,19.72
2018-06-06T20:18:46.204Z,19.75
2018-06-06T20:21:15.691Z,19.75
2018-06-06T20:23:44.762Z,19.73
2018-06-06T20:26:14.053Z,19.73
2018-06-06T20:28:43.141Z,19.69
2018-06-06T20:31:12.258Z,19.76
2018-06-06T20:33:41.758Z,19.84
2018-06-06T20:36:11.322Z,19.86
2018-06-06T20:38:40.999Z,20.12
2018-06-06T20:41:10.278Z,20.05
2018-06-06T20:43:39.403Z,19.87
2018-06-06T20:46:08.719Z,19.81
2018-06-06T20:48:37.901Z,19.75
2018-06-06T20:51:07.774Z,19.66
2018-06-06T20:53:36.937Z,19.54
2018-06-06T20:56:06.691Z,19.48
2018-06-06T20:58:35.858Z,19.38
2018-06-06T21:01:05.626Z,19.28
2018-06-06T21:03:34.767Z,19.15
2018-06-06T21:06:03.847Z,19.19
2018-06-06T21:08:33.150Z,19.03
2018-06-06T21:11:03.184Z,18.96
2018-06-06T21:13:32.489Z,18.87
2018-06-06T21:16:02.303Z,18.86
2018-06-06T21:18:31.922Z,18.81
2018-06-06T21:21:01.893Z,18.70
2018-06-06T21:23:31.040Z,18.62
2018-06-06T21:26:00.111Z,18.67
2018-06-06T21:28:29.220Z,18.65
2018-06-06T21:30:58.294Z,18.64
2018-06-06T21:33:27.442Z,18.72
2018-06-06T21:35:56.522Z,18.80
2018-06-06T21:38:25.599Z,18.68
2018-06-06T21:40:54.686Z,18.51
2018-06-06T21:43:23.812Z,18.36
2018-06-06T21:45:52.927Z,18.23
2018-06-06T21:48:22.023Z,18.25
2018-06-06T21:50:51.134Z,18.38
2018-06-06T21:53:20.210Z,18.39
2018-06-06T21:55:49.267Z,18.33
2018-06-06T21:58:18.391Z,18.22
2018-06-06T22:00:47.810Z,18.20
2018-06-06T22:03:17.289Z,18.06
2018-06-06T22:05:46.482Z,18.08
2018-06-06T22:08:16.375Z,18.03
2018-06-06T22:10:45.518Z,17.94
2018-06-06T22:13:14.594Z,17.90
2018-06-06T22:15:44.271Z,17.90
2018-06-06T22:18:13.671Z,17.79
2018-06-06T22:20:42.758Z,17.69
2018-06-06T22:23:11.878Z,17.58
2018-06-06T22:25:40.949Z,17.56
2018-06-06T22:28:10.047Z,17.65
2018-06-06T22:30:39.919Z,17.77
2018-06-06T22:33:08.979Z,17.60
2018-06-06T22:35:38.058Z,17.45
2018-06-06T22:38:07.153Z,17.57
2018-06-06T22:40:36.252Z,17.64
2018-06-06T22:43:05.342Z,18.05
2018-06-06T22:45:34.418Z,18.22
2018-06-06T22:48:03.658Z,18.13
2018-06-06T22:50:32.727Z,17.93
2018-06-06T22:53:01.783Z,17.81
2018-06-06T22:55:30.914Z,17.72
2018-06-06T22:58:00.831Z,17.86
2018-06-06T23:00:29.903Z,17.62
2018-06-06T23:02:59.089Z,17.57
2018-06-06T23:05:28.168Z,17.51
2018-06-06T23:07:57.243Z,17.35
2018-06-06T23:10:27.095Z,17.22
2018-06-06T23:12:56.155Z,17.14
2018-06-06T23:15:25.233Z,17.15
2018-06-06T23:17:54.330Z,17.32
2018-06-06T23:20:23.403Z,17.29
2018-06-06T23:22:52.509Z,17.19
2018-06-06T23:25:22.207Z,16.93
2018-06-06T23:27:51.546Z,16.74
2018-06-06T23:30:20.634Z,16.79
2018-06-06T23:32:49.755Z,16.72
2018-06-06T23:35:18.838Z,16.91
2018-06-06T23:37:47.919Z,16.95
2018-06-06T23:40:17.025Z,17.02
2018-06-06T23:42:46.114Z,16.95
2018-06-06T23:45:15.227Z,17.10
2018-06-06T23:47:44.530Z,17.01
2018-06-06T23:50:13.604Z,17.48
2018-06-06T23:52:42.710Z,17.68
2018-06-06T23:55:11.879Z,17.63
2018-06-06T23:57:41.012Z,17.46
